createdAt,value
2019-04-06T00:01:28.619Z,100.00
2019-04-06T00:03:57.366Z,100.00
2019-04-06T00:06:26.115Z,100.00
2019-04-06T00:08:54.881Z,100.00
2019-04-06T00:11:23.644Z,100.00
2019-04-06T00:13:52.409Z,100.00
2019-04-06T00:16:21.240Z,100.00
2019-04-06T00:18:50.009Z,100.00
2019-04-06T00:21:18.834Z,100.00
2019-04-06T00:23:47.579Z,100.00
2019-04-06T00:26:16.343Z,100.00
2019-04-06T00:28:45.076Z,100.00
2019-04-06T00:31:51.404Z,100.00
2019-04-06T00:34:20.422Z,100.00
2019-04-06T00:36:49.151Z,100.00
2019-04-06T00:39:17.975Z,100.00
2019-04-06T00:41:46.991Z,100.00
2019-04-06T00:44:16.903Z,100.00
2019-04-06T00:46:45.849Z,100.00
2019-04-06T00:49:14.571Z,100.00
2019-04-06T00:51:43.395Z,100.00
2019-04-06T00:54:12.128Z,100.00
2019-04-06T00:56:40.883Z,100.00
2019-04-06T00:59:09.794Z,100.00
2019-04-06T01:01:38.536Z,100.00
2019-04-06T01:04:07.365Z,100.00
2019-04-06T01:06:36.195Z,100.00
2019-04-06T01:09:08.898Z,100.00
2019-04-06T01:11:37.730Z,100.00
2019-04-06T01:14:06.544Z,100.00
2019-04-06T01:16:35.300Z,100.00
2019-04-06T01:19:04.115Z,100.00
2019-04-06T01:21:32.825Z,100.00
2019-04-06T01:24:01.581Z,100.00
2019-04-06T01:26:30.347Z,100.00
2019-04-06T01:28:59.277Z,100.00
2019-04-06T01:31:28.364Z,100.00
2019-04-06T01:33:59.030Z,100.00
2019-04-06T01:36:27.625Z,100.00
2019-04-06T01:38:56.399Z,100.00
2019-04-06T01:41:25.256Z,100.00
2019-04-06T01:43:54.149Z,100.00
2019-04-06T01:46:22.903Z,100.00
2019-04-06T01:48:51.639Z,100.00
2019-04-06T01:51:20.420Z,100.00
2019-04-06T01:53:49.181Z,100.00
2019-04-06T01:56:19.053Z,100.00
2019-04-06T01:58:48.055Z,100.00
2019-04-06T02:01:21.744Z,100.00
2019-04-06T02:03:50.935Z,100.00
2019-04-06T02:06:19.729Z,100.00
2019-04-06T02:08:48.557Z,100.00
2019-04-06T02:11:17.327Z,100.00
2019-04-06T02:13:46.181Z,100.00
2019-04-06T02:16:14.921Z,100.00
2019-04-06T02:18:43.681Z,100.00
2019-04-06T02:21:12.430Z,100.00
2019-04-06T02:23:41.439Z,100.00
2019-04-06T02:26:10.532Z,100.00
2019-04-06T02:28:39.285Z,100.00
2019-04-06T02:31:14.684Z,100.00
2019-04-06T02:34:07.898Z,100.00
2019-04-06T02:36:55.702Z,100.00
2019-04-06T02:39:35.033Z,100.00
2019-04-06T02:42:14.715Z,100.00
2019-04-06T02:44:43.464Z,100.00
2019-04-06T02:47:12.257Z,100.00
2019-04-06T02:49:40.999Z,100.00
2019-04-06T02:52:10.048Z,100.00
2019-04-06T02:54:38.789Z,100.00
2019-04-06T02:57:07.519Z,100.00
2019-04-06T02:59:36.514Z,100.00
2019-04-06T03:02:05.502Z,100.00
2019-04-06T03:04:34.263Z,100.00
2019-04-06T03:07:03.070Z,100.00
2019-04-06T03:09:31.882Z,100.00
2019-04-06T03:12:00.696Z,100.00
2019-04-06T03:14:29.467Z,100.00
2019-04-06T03:16:58.278Z,100.00
2019-04-06T03:19:30.629Z,100.00
2019-04-06T03:22:00.066Z,100.00
2019-04-06T03:24:29.874Z,100.00
2019-04-06T03:27:02.443Z,100.00
2019-04-06T03:29:30.642Z,100.00
2019-04-06T03:31:59.945Z,100.00
2019-04-06T03:34:32.209Z,100.00
2019-04-06T03:37:01.090Z,100.00
2019-04-06T03:39:29.867Z,100.00
2019-04-06T03:41:58.647Z,100.00
2019-04-06T03:44:27.388Z,100.00
2019-04-06T03:46:56.630Z,100.00
2019-04-06T03:49:25.425Z,100.00
2019-04-06T03:51:54.535Z,100.00
2019-04-06T03:54:23.284Z,100.00
2019-04-06T03:56:52.314Z,100.00
2019-04-06T03:59:21.067Z,100.00
2019-04-06T04:01:50.088Z,100.00
2019-04-06T04:04:18.926Z,100.00
2019-04-06T04:06:47.652Z,100.00
2019-04-06T04:09:16.680Z,100.00
2019-04-06T04:11:45.413Z,100.00
2019-04-06T04:14:14.297Z,100.00
2019-04-06T04:19:03.515Z,100.00
2019-04-06T04:21:32.298Z,100.00
2019-04-06T04:24:01.144Z,100.00
2019-04-06T04:26:29.953Z,100.00
2019-04-06T04:28:58.721Z,100.00
2019-04-06T04:31:27.457Z,100.00
2019-04-06T04:33:56.209Z,100.00
2019-04-06T04:36:24.960Z,100.00
2019-04-06T04:38:53.861Z,100.00
2019-04-06T04:41:22.618Z,100.00
2019-04-06T04:43:51.371Z,100.00
2019-04-06T04:46:20.112Z,100.00
2019-04-06T04:48:48.877Z,100.00
2019-04-06T04:51:17.754Z,100.00
2019-04-06T04:53:47.937Z,100.00
2019-04-06T04:56:16.688Z,100.00
2019-04-06T04:58:45.510Z,100.00
2019-04-06T05:01:14.247Z,100.00
2019-04-06T05:03:43.012Z,100.00
2019-04-06T05:06:11.751Z,100.00
2019-04-06T05:08:40.516Z,100.00
2019-04-06T05:11:09.251Z,100.00
2019-04-06T05:13:38.013Z,100.00
2019-04-06T05:16:11.210Z,100.00
2019-04-06T05:18:40.819Z,100.00
2019-04-06T05:21:09.725Z,100.00
2019-04-06T05:23:38.812Z,100.00
2019-04-06T05:26:07.807Z,100.00
2019-04-06T05:28:36.892Z,100.00
2019-04-06T05:31:06.140Z,100.00
2019-04-06T05:33:34.915Z,100.00
2019-04-06T05:36:04.514Z,100.00
2019-04-06T05:38:33.338Z,100.00
2019-04-06T05:41:02.093Z,100.00
2019-04-06T05:43:30.828Z,100.00
2019-04-06T05:45:59.584Z,100.00
2019-04-06T05:48:28.419Z,100.00
2019-04-06T05:50:57.261Z,100.00
2019-04-06T05:53:25.997Z,100.00
2019-04-06T05:55:54.839Z,100.00
2019-04-06T05:58:23.879Z,100.00
2019-04-06T06:00:52.756Z,100.00
2019-04-06T06:03:21.463Z,100.00
2019-04-06T06:05:50.203Z,100.00
2019-04-06T06:08:19.134Z,100.00
2019-04-06T06:10:47.917Z,100.00
2019-04-06T06:13:16.665Z,100.00
2019-04-06T06:15:45.500Z,100.00
2019-04-06T06:18:25.357Z,100.00
2019-04-06T06:20:45.505Z,100.00
2019-04-06T06:23:14.579Z,100.00
2019-04-06T06:25:43.331Z,100.00
2019-04-06T06:28:14.943Z,100.00
2019-04-06T06:30:43.133Z,100.00
2019-04-06T06:33:12.011Z,100.00
2019-04-06T06:35:40.881Z,100.00
2019-04-06T06:38:09.898Z,100.00
2019-04-06T06:40:38.801Z,100.00
2019-04-06T06:43:07.516Z,100.00
2019-04-06T06:45:36.378Z,100.00
2019-04-06T06:48:05.426Z,100.00
2019-04-06T06:50:34.693Z,100.00
2019-04-06T06:53:03.841Z,100.00
2019-04-06T06:55:32.982Z,100.00
2019-04-06T06:58:01.854Z,100.00
2019-04-06T07:00:30.608Z,100.00
2019-04-06T07:02:59.785Z,100.00
2019-04-06T07:05:28.797Z,100.00
2019-04-06T07:07:57.854Z,100.00
2019-04-06T07:10:26.694Z,100.00
2019-04-06T07:12:55.515Z,100.00
2019-04-06T07:15:24.308Z,100.00
2019-04-06T07:17:53.153Z,100.00
2019-04-06T07:20:22.066Z,100.00
2019-04-06T07:22:51.133Z,100.00
2019-04-06T07:25:19.894Z,100.00
2019-04-06T07:27:48.638Z,100.00
2019-04-06T07:30:17.812Z,100.00
2019-04-06T07:32:46.497Z,100.00
2019-04-06T07:35:15.404Z,100.00
2019-04-06T07:37:44.498Z,100.00
2019-04-06T07:40:14.515Z,100.00
2019-04-06T07:42:43.488Z,100.00
2019-04-06T07:45:12.913Z,100.00
2019-04-06T07:47:42.751Z,100.00
2019-04-06T07:50:12.927Z,100.00
2019-04-06T07:52:42.652Z,100.00
2019-04-06T07:55:12.774Z,100.00
2019-04-06T07:57:41.954Z,100.00
2019-04-06T08:00:11.241Z,100.00
2019-04-06T08:02:40.077Z,100.00
2019-04-06T08:05:09.088Z,100.00
2019-04-06T08:07:37.956Z,100.00
2019-04-06T08:10:06.956Z,100.00
2019-04-06T08:12:35.702Z,100.00
2019-04-06T08:15:05.472Z,100.00
2019-04-06T08:17:34.305Z,100.00
2019-04-06T08:20:03.120Z,100.00
2019-04-06T08:22:31.874Z,100.00
2019-04-06T08:25:01.100Z,100.00
2019-04-06T08:27:29.838Z,100.00
2019-04-06T08:29:58.608Z,100.00
2019-04-06T08:32:27.504Z,100.00
2019-04-06T08:34:56.320Z,100.00
2019-04-06T08:37:25.075Z,100.00
2019-04-06T08:39:53.877Z,100.00
2019-04-06T08:42:22.642Z,100.00
2019-04-06T08:44:51.394Z,100.00
2019-04-06T08:47:20.225Z,100.00
2019-04-06T08:49:49.319Z,100.00
2019-04-06T08:52:18.077Z,100.00
2019-04-06T08:54:46.817Z,100.00
2019-04-06T08:57:15.574Z,100.00
2019-04-06T08:59:44.326Z,100.00
2019-04-06T09:02:13.160Z,100.00
2019-04-06T09:04:41.915Z,100.00
2019-04-06T09:07:10.750Z,100.00
2019-04-06T09:09:39.747Z,100.00
2019-04-06T09:12:08.445Z,100.00
2019-04-06T09:14:37.218Z,100.00
2019-04-06T09:17:06.117Z,100.00
2019-04-06T09:19:34.847Z,100.00
2019-04-06T09:22:03.678Z,100.00
2019-04-06T09:24:32.503Z,100.00
2019-04-06T09:27:01.272Z,100.00
2019-04-06T09:29:30.070Z,100.00
2019-04-06T09:31:58.856Z,100.00
2019-04-06T09:34:30.554Z,100.00
2019-04-06T09:36:58.486Z,100.00
2019-04-06T09:39:27.273Z,99.24
2019-04-06T09:41:55.989Z,99.18
2019-04-06T09:44:56.224Z,99.05
2019-04-06T09:47:28.956Z,98.92
2019-04-06T09:50:07.176Z,97.69
2019-04-06T09:52:45.394Z,97.68
2019-04-06T09:55:39.282Z,96.39
2019-04-06T09:58:20.149Z,94.71
2019-04-06T10:01:03.868Z,94.71
2019-04-06T10:03:40.359Z,95.09
2019-04-06T10:06:33.738Z,94.41
2019-04-06T10:09:24.819Z,94.00
2019-04-06T10:12:11.624Z,93.69
2019-04-06T10:14:54.007Z,93.51
2019-04-06T10:17:40.669Z,93.33
2019-04-06T10:20:21.761Z,92.63
2019-04-06T10:23:19.128Z,92.27
2019-04-06T10:25:53.616Z,92.45
2019-04-06T10:28:50.340Z,92.93
2019-04-06T10:31:37.501Z,92.70
2019-04-06T10:34:15.560Z,92.38
2019-04-06T10:36:59.857Z,92.50
2019-04-06T10:39:39.353Z,90.44
2019-04-06T10:42:30.527Z,91.63
2019-04-06T10:45:21.688Z,91.22
2019-04-06T10:48:12.231Z,89.96
2019-04-06T10:50:52.046Z,89.98
2019-04-06T10:53:39.022Z,91.18
2019-04-06T10:56:19.807Z,90.50
2019-04-06T10:59:15.426Z,89.99
2019-04-06T11:02:02.549Z,88.33
2019-04-06T11:04:36.305Z,88.97
2019-04-06T11:07:24.296Z,89.07
2019-04-06T11:10:09.345Z,87.72
2019-04-06T11:12:46.022Z,87.81
2019-04-06T11:15:32.885Z,86.33
2019-04-06T11:18:22.721Z,86.02
2019-04-06T11:21:11.105Z,85.87
2019-04-06T11:23:46.861Z,85.79
2019-04-06T11:26:26.997Z,84.43
2019-04-06T11:29:16.865Z,83.05
2019-04-06T11:31:56.954Z,82.43
2019-04-06T11:34:39.179Z,83.37
2019-04-06T11:37:14.894Z,82.57
2019-04-06T11:39:56.157Z,82.45
2019-04-06T11:42:47.189Z,82.37
2019-04-06T11:45:28.150Z,82.10
2019-04-06T11:48:14.576Z,81.13
2019-04-06T11:51:12.118Z,80.92
2019-04-06T11:53:48.773Z,80.59
2019-04-06T11:56:35.108Z,79.54
2019-04-06T11:59:23.025Z,79.77
2019-04-06T12:02:02.162Z,78.81
2019-04-06T12:05:05.488Z,78.33
2019-04-06T12:07:52.072Z,78.08
2019-04-06T12:10:29.180Z,77.83
2019-04-06T12:13:16.089Z,77.58
2019-04-06T12:15:53.635Z,76.39
2019-04-06T12:18:31.992Z,76.58
2019-04-06T12:21:25.619Z,75.54
2019-04-06T12:24:22.889Z,76.17
2019-04-06T12:27:20.284Z,75.70
2019-04-06T12:30:08.780Z,74.88
2019-04-06T12:32:55.731Z,74.60
2019-04-06T12:35:50.216Z,73.55
2019-04-06T12:38:38.127Z,74.79
2019-04-06T12:41:17.232Z,74.15
2019-04-06T12:44:14.513Z,72.27
2019-04-06T12:46:52.890Z,73.93
2019-04-06T12:49:46.656Z,71.64
2019-04-06T12:52:37.274Z,71.25
2019-04-06T12:55:25.500Z,71.08
2019-04-06T12:58:05.808Z,69.00
2019-04-06T13:00:53.299Z,71.97
2019-04-06T13:03:51.413Z,70.90
2019-04-06T13:06:47.042Z,70.87
2019-04-06T13:09:26.574Z,71.33
2019-04-06T13:12:13.070Z,69.47
2019-04-06T13:14:54.445Z,69.88
2019-04-06T13:17:30.131Z,69.15
2019-04-06T13:20:16.985Z,67.62
2019-04-06T13:23:00.779Z,67.06
2019-04-06T13:25:57.637Z,67.63
2019-04-06T13:28:51.508Z,64.07
2019-04-06T13:31:44.992Z,65.86
2019-04-06T13:34:44.928Z,68.01
2019-04-06T13:37:22.705Z,67.45
2019-04-06T13:40:10.521Z,65.99
2019-04-06T13:43:10.679Z,66.86
2019-04-06T13:45:59.307Z,65.49
2019-04-06T13:48:46.001Z,63.82
2019-04-06T13:51:28.828Z,64.24
2019-04-06T13:54:12.323Z,62.01
2019-04-06T13:56:49.492Z,63.92
2019-04-06T13:59:27.332Z,61.30
2019-04-06T14:02:04.946Z,62.55
2019-04-06T14:04:40.909Z,62.40
2019-04-06T14:07:22.541Z,60.02
2019-04-06T14:10:04.538Z,56.67
2019-04-06T14:12:58.346Z,57.19
2019-04-06T14:15:43.263Z,57.36
2019-04-06T14:18:21.176Z,56.34
2019-04-06T14:21:02.854Z,57.03
2019-04-06T14:23:56.905Z,55.55
2019-04-06T14:26:37.380Z,55.55
2019-04-06T14:29:23.873Z,55.85
2019-04-06T14:32:02.710Z,56.48
2019-04-06T14:34:45.898Z,56.65
2019-04-06T14:37:39.825Z,58.03
2019-04-06T14:40:31.632Z,57.73
2019-04-06T14:43:25.156Z,56.66
2019-04-06T14:46:19.418Z,57.11
2019-04-06T14:49:17.186Z,57.30
2019-04-06T14:51:52.997Z,55.78
2019-04-06T14:54:39.995Z,56.71
2019-04-06T14:57:23.786Z,54.37
2019-04-06T15:00:02.770Z,56.00
2019-04-06T15:02:40.271Z,55.92
2019-04-06T15:05:20.997Z,56.70
2019-04-06T15:07:59.004Z,57.17
2019-04-06T15:10:44.312Z,56.35
2019-04-06T15:13:18.982Z,57.02
2019-04-06T15:16:06.878Z,57.82
2019-04-06T15:18:42.256Z,57.52
2019-04-06T15:21:16.645Z,57.78
2019-04-06T15:23:52.915Z,58.19
2019-04-06T15:26:29.528Z,57.35
2019-04-06T15:29:20.158Z,56.30
2019-04-06T15:32:20.490Z,57.37
2019-04-06T15:35:07.292Z,58.04
2019-04-06T15:37:48.985Z,56.58
2019-04-06T15:40:45.939Z,56.43
2019-04-06T15:43:25.198Z,56.23
2019-04-06T15:46:12.095Z,56.48
2019-04-06T15:49:02.807Z,56.93
2019-04-06T15:51:53.647Z,56.45
2019-04-06T15:54:31.503Z,56.29
2019-04-06T15:57:19.589Z,57.03
2019-04-06T15:59:54.586Z,55.65
2019-04-06T16:02:48.479Z,56.24
2019-04-06T16:05:29.229Z,56.15
2019-04-06T16:08:09.452Z,57.32
2019-04-06T16:10:55.380Z,56.96
2019-04-06T16:13:42.207Z,57.38
2019-04-06T16:16:36.121Z,57.27
2019-04-06T16:19:23.185Z,57.64
2019-04-06T16:22:14.144Z,58.67
2019-04-06T16:25:01.971Z,58.56
2019-04-06T16:27:41.085Z,58.78
2019-04-06T16:30:21.622Z,58.94
2019-04-06T16:33:02.752Z,59.39
2019-04-06T16:35:43.840Z,60.04
2019-04-06T16:38:22.103Z,59.82
2019-04-06T16:41:09.588Z,60.82
2019-04-06T16:43:56.543Z,60.39
2019-04-06T16:46:43.657Z,60.32
2019-04-06T16:49:37.965Z,60.44
2019-04-06T16:52:14.009Z,60.79
2019-04-06T16:55:05.437Z,60.21
2019-04-06T16:57:44.928Z,60.79
2019-04-06T17:00:29.636Z,61.06
2019-04-06T17:03:06.713Z,61.08
2019-04-06T17:05:58.330Z,61.08
2019-04-06T17:08:32.370Z,62.28
2019-04-06T17:11:30.811Z,61.49
2019-04-06T17:14:17.517Z,62.14
2019-04-06T17:17:00.754Z,62.90
2019-04-06T17:19:49.587Z,62.57
2019-04-06T17:22:26.284Z,62.82
2019-04-06T17:25:06.771Z,63.03
2019-04-06T17:27:49.237Z,62.87
2019-04-06T17:30:29.547Z,62.36
2019-04-06T17:33:09.981Z,62.08
2019-04-06T17:35:56.111Z,61.88
2019-04-06T17:38:30.466Z,61.87
2019-04-06T17:41:05.422Z,62.73
2019-04-06T17:43:52.507Z,62.20
2019-04-06T17:46:36.887Z,61.54
2019-04-06T17:49:24.755Z,62.08
2019-04-06T17:52:19.393Z,62.19
2019-04-06T17:54:58.221Z,62.74
2019-04-06T17:57:44.799Z,63.58
2019-04-06T18:00:37.060Z,63.52
2019-04-06T18:03:31.369Z,63.74
2019-04-06T18:06:27.475Z,62.87
2019-04-06T18:09:21.047Z,63.44
2019-04-06T18:11:55.176Z,64.60
2019-04-06T18:14:24.668Z,65.21
2019-04-06T18:16:53.353Z,68.00
2019-04-06T18:19:22.354Z,70.80
2019-04-06T18:21:51.093Z,71.83
2019-04-06T18:24:20.233Z,74.16
2019-04-06T18:26:49.121Z,75.58
2019-04-06T18:29:18.407Z,76.82
2019-04-06T18:31:59.183Z,79.23
2019-04-06T18:34:28.529Z,80.82
2019-04-06T18:37:25.729Z,82.21
2019-04-06T18:39:55.714Z,83.05
2019-04-06T18:42:24.542Z,83.21
2019-04-06T18:44:53.406Z,83.31
2019-04-06T18:47:22.132Z,83.58
2019-04-06T18:49:50.887Z,83.65
2019-04-06T18:52:20.078Z,83.65
2019-04-06T18:54:48.854Z,84.69
2019-04-06T18:57:17.592Z,85.01
2019-04-06T18:59:46.359Z,85.71
2019-04-06T19:02:15.115Z,85.84
2019-04-06T19:04:44.036Z,85.74
2019-04-06T19:07:12.950Z,85.54
2019-04-06T19:09:41.862Z,85.12
2019-04-06T19:12:10.721Z,85.04
2019-04-06T19:14:39.512Z,84.63
2019-04-06T19:17:08.502Z,84.44
2019-04-06T19:19:37.434Z,84.42
2019-04-06T19:22:06.129Z,85.65
2019-04-06T19:24:35.119Z,84.69
2019-04-06T19:27:04.471Z,84.71
2019-04-06T19:29:33.198Z,84.95
2019-04-06T19:32:02.841Z,85.61
2019-04-06T19:34:31.593Z,86.14
2019-04-06T19:37:00.356Z,86.61
2019-04-06T19:39:29.199Z,87.53
2019-04-06T19:41:58.375Z,87.30
2019-04-06T19:44:27.268Z,86.97
2019-04-06T19:47:02.765Z,88.91
2019-04-06T19:49:50.131Z,88.65
2019-04-06T19:52:26.719Z,88.64
2019-04-06T19:55:08.992Z,88.86
2019-04-06T19:57:43.689Z,89.47
2019-04-06T20:00:13.366Z,89.61
2019-04-06T20:03:06.369Z,89.44
2019-04-06T20:05:35.611Z,89.03
2019-04-06T20:08:15.401Z,89.39
2019-04-06T20:10:55.467Z,89.30
2019-04-06T20:13:47.447Z,90.13
2019-04-06T20:19:18.045Z,90.58
2019-04-06T20:21:57.902Z,91.02
2019-04-06T20:24:32.811Z,90.63
2019-04-06T20:27:07.128Z,91.55
2019-04-06T20:29:53.501Z,92.35
2019-04-06T20:32:22.290Z,93.26
2019-04-06T20:34:53.632Z,93.08
2019-04-06T20:37:22.649Z,92.82
2019-04-06T20:39:54.289Z,93.18
2019-04-06T20:42:41.616Z,93.18
2019-04-06T20:45:16.816Z,93.30
2019-04-06T20:47:50.661Z,93.27
2019-04-06T20:50:22.401Z,93.63
2019-04-06T20:56:30.272Z,93.16
2019-04-06T20:59:05.393Z,93.16
2019-04-06T21:01:35.962Z,93.48
2019-04-06T21:04:09.215Z,93.82
2019-04-06T21:06:44.030Z,93.95
2019-04-06T21:09:20.044Z,93.85
2019-04-06T21:12:23.696Z,93.63
2019-04-06T21:14:58.877Z,94.00
2019-04-06T21:17:27.935Z,93.93
2019-04-06T21:20:00.196Z,94.32
2019-04-06T21:22:29.529Z,94.91
2019-04-06T21:25:01.779Z,94.76
2019-04-06T21:27:36.232Z,95.35
2019-04-06T21:30:15.209Z,95.35
2019-04-06T21:32:55.472Z,94.31
2019-04-06T21:35:24.362Z,94.31
2019-04-06T21:38:05.531Z,94.54
2019-04-06T21:40:35.102Z,94.67
2019-04-06T21:43:09.076Z,94.97
2019-04-06T21:45:41.039Z,94.77
2019-04-06T21:48:10.449Z,94.92
2019-04-06T21:50:42.366Z,95.07
2019-04-06T21:53:14.899Z,95.33
2019-04-06T21:55:48.380Z,95.33
2019-04-06T21:58:17.721Z,95.14
2019-04-06T22:01:02.663Z,95.08
2019-04-06T22:03:36.515Z,94.73
2019-04-06T22:06:09.935Z,95.19
2019-04-06T22:08:47.087Z,94.75
2019-04-06T22:11:23.966Z,94.87
2019-04-06T22:13:51.462Z,94.93
2019-04-06T22:16:32.506Z,95.30
2019-04-06T22:19:07.945Z,95.53
2019-04-06T22:21:47.250Z,96.27
2019-04-06T22:24:17.118Z,96.87
2019-04-06T22:26:46.363Z,96.14
2019-04-06T22:29:17.297Z,96.02
2019-04-06T22:31:46.416Z,96.20
2019-04-06T22:34:16.466Z,96.20
2019-04-06T22:36:48.111Z,95.69
2019-04-06T22:39:17.183Z,96.47
2019-04-06T22:41:48.192Z,96.65
2019-04-06T22:44:25.338Z,96.84
2019-04-06T22:46:56.813Z,96.75
2019-04-06T22:49:29.379Z,96.93
2019-04-06T22:52:03.587Z,96.89
2019-04-06T22:54:34.452Z,96.94
2019-04-06T22:57:04.363Z,96.58
2019-04-06T22:59:34.709Z,97.30
2019-04-06T23:02:09.327Z,96.89
2019-04-06T23:04:55.047Z,96.85
2019-04-06T23:07:28.063Z,96.68
2019-04-06T23:09:57.695Z,96.30
2019-04-06T23:12:26.828Z,97.42
2019-04-06T23:14:58.262Z,97.59
2019-04-06T23:17:31.818Z,97.29
2019-04-06T23:20:16.330Z,96.47
2019-04-06T23:22:58.149Z,96.99
2019-04-06T23:25:31.390Z,96.61
2019-04-06T23:28:00.273Z,96.20
2019-04-06T23:30:29.638Z,96.25
2019-04-06T23:32:58.504Z,96.41
2019-04-06T23:35:35.917Z,96.44
2019-04-06T23:38:08.540Z,96.51
2019-04-06T23:40:38.839Z,96.27
2019-04-06T23:43:11.733Z,96.20
2019-04-06T23:45:41.139Z,95.98
2019-04-06T23:48:12.800Z,95.51
2019-04-06T23:50:52.939Z,95.35
2019-04-06T23:53:22.026Z,95.57
2019-04-06T23:55:55.291Z,95.73
2019-04-06T23:58:24.470Z,96.17
